Time;durP1;ratioP1;P1;durP2;ratioP2;P2;SDS_P1;SDS_P2;PMS_P1;PMS_P2;Temp;Humidity;BMP_temperature;BMP_pressure;BME280_temperature;BME280_humidity;BME280_pressure;Samples;Min_cycle;Max_cycle;Signal;HPM_P1;HPM_P2
2022/02/08 00:00:23;;;;;;;;;33.00;29.00;;;;;9.25;54.99;102789.75;5028439;28;47117;-44
2022/02/08 00:02:52;;;;;;;;;36.75;33.00;;;;;9.27;55.05;102793.31;5054753;28;45181;-46
2022/02/08 00:05:20;;;;;;;;;38.25;33.25;;;;;9.27;55.35;102788.06;5048230;28;45516;-48
2022/02/08 00:07:49;;;;;;;;;36.25;32.25;;;;;9.27;55.31;102793.31;5047306;28;45369;-48
2022/02/08 00:10:14;;;;;;;;;38.00;32.75;;;;;9.28;54.97;102784.56;5039913;28;46312;-48
2022/02/08 00:12:40;;;;;;;;;36.00;33.00;;;;;9.27;55.22;102788.06;5054503;28;45244;-46
2022/02/08 00:15:06;;;;;;;;;38.75;30.75;;;;;9.29;55.13;102795.97;5050027;28;45308;-43
2022/02/08 00:17:32;;;;;;;;;35.50;30.50;;;;;9.27;55.10;102794.19;5047606;28;45421;-47
2022/02/08 00:19:59;;;;;;;;;40.75;33.50;;;;;9.28;55.37;102792.44;5052189;28;45206;-43
2022/02/08 00:22:26;;;;;;;;;36.25;29.50;;;;;9.25;55.43;102784.50;5052098;28;45321;-45
2022/02/08 00:24:51;;;;;;;;;33.00;31.00;;;;;9.27;55.53;102788.94;5040839;28;45352;-47
2022/02/08 00:27:16;;;;;;;;;36.00;31.50;;;;;9.26;55.58;102786.28;5054375;28;45351;-45
2022/02/08 00:29:42;;;;;;;;;45.75;34.50;;;;;9.23;55.61;102770.44;5046727;28;45424;-48
2022/02/08 00:32:07;;;;;;;;;34.00;31.25;;;;;9.23;55.58;102773.97;5034539;28;45423;-45
2022/02/08 00:34:33;;;;;;;;;39.25;32.75;;;;;9.24;55.71;102766.97;5054091;28;45449;-46
2022/02/08 00:36:58;;;;;;;;;34.75;33.25;;;;;9.22;55.75;102769.56;5054435;28;45432;-47
2022/02/08 00:39:24;;;;;;;;;40.25;33.75;;;;;9.23;55.71;102765.19;5046248;28;45205;-48
2022/02/08 00:41:50;;;;;;;;;39.50;33.75;;;;;9.22;55.85;102769.56;5046225;28;45326;-48
2022/02/08 00:44:24;;;;;;;;;41.25;31.25;;;;;9.23;55.84;102765.19;5053657;28;45239;-47
2022/02/08 00:49:15;;;;;;;;;35.00;31.25;;;;;9.25;55.62;102766.13;5049462;28;46227;-47
2022/02/08 00:51:44;;;;;;;;;34.25;29.75;;;;;9.24;55.75;102766.97;5047184;28;45185;-45
2022/02/08 00:54:12;;;;;;;;;34.75;32.25;;;;;9.28;55.88;102768.81;5051150;28;45369;-46
2022/02/08 00:56:38;;;;;;;;;34.75;30.25;;;;;9.29;55.71;102767.09;5052111;28;45367;-44
2022/02/08 00:59:03;;;;;;;;;32.25;28.50;;;;;9.30;55.75;102772.38;5050403;28;46209;-45
2022/02/08 01:01:33;;;;;;;;;31.50;28.75;;;;;9.32;55.74;102770.69;5042641;28;45370;-47
2022/02/08 01:03:59;;;;;;;;;33.50;28.25;;;;;9.33;55.82;102766.31;5051125;28;45342;-48
2022/02/08 01:06:25;;;;;;;;;30.25;28.75;;;;;9.34;55.80;102763.72;5046865;28;45287;-43
2022/02/08 01:08:52;;;;;;;;;30.50;25.75;;;;;9.35;56.02;102777.75;5049364;28;45429;-47
2022/02/08 01:11:18;;;;;;;;;29.50;28.00;;;;;9.34;55.80;102774.22;5044541;28;45265;-45
2022/02/08 01:13:44;;;;;;;;;34.00;29.00;;;;;9.34;55.97;102773.34;5048221;28;45371;-45
2022/02/08 01:16:09;;;;;;;;;31.50;27.75;;;;;9.33;55.82;102777.69;5059942;28;45502;-45
2022/02/08 01:18:39;;;;;;;;;30.50;27.50;;;;;9.32;56.04;102780.28;5048087;28;46222;-44
2022/02/08 01:21:05;;;;;;;;;27.00;25.00;;;;;9.34;56.00;102781.22;5053413;28;45451;-44
2022/02/08 01:23:30;;;;;;;;;31.75;28.25;;;;;9.34;56.08;102789.97;5039708;28;45256;-44
2022/02/08 01:25:59;;;;;;;;;29.50;24.50;;;;;9.34;56.06;102789.97;5041112;28;45319;-46
2022/02/08 01:29:19;;;;;;;;;32.00;25.75;;;;;9.34;55.89;102792.59;5050343;28;45315;-45
2022/02/08 01:31:15;;;;;;;;;32.50;27.75;;;;;9.33;56.22;102789.94;5042626;28;45428;-45
2022/02/08 01:34:07;;;;;;;;;24.50;22.75;;;;;9.36;56.01;102793.50;5053290;28;45485;-46
2022/02/08 01:39:03;;;;;;;;;28.00;25.25;;;;;9.37;56.00;102776.03;5052748;28;46243;-45
2022/02/08 01:51:48;;;;;;;;;26.50;24.25;;;;;9.40;56.08;102787.47;5052898;28;45159;-44
2022/02/08 01:54:14;;;;;;;;;32.00;24.25;;;;;9.43;56.25;102794.53;5049697;28;45277;-46
2022/02/08 01:56:39;;;;;;;;;26.00;24.00;;;;;9.43;56.37;102798.06;5041067;28;45169;-44
2022/02/08 01:59:04;;;;;;;;;30.75;26.50;;;;;9.44;56.15;102793.69;5049543;28;45599;-44
2022/02/08 02:01:30;;;;;;;;;26.50;20.00;;;;;9.43;56.30;102789.28;5046153;28;45172;-45
2022/02/08 02:03:55;;;;;;;;;20.25;18.00;;;;;9.42;56.46;102793.66;5049953;27;45153;-44
2022/02/08 02:06:22;;;;;;;;;27.00;22.25;;;;;9.42;56.24;102792.75;5052901;28;45504;-44
2022/02/08 02:08:48;;;;;;;;;27.25;22.50;;;;;9.38;56.33;102797.06;5038999;28;47237;-48
2022/02/08 02:11:13;;;;;;;;;22.25;19.75;;;;;9.41;56.26;102794.50;5039372;28;45375;-46
2022/02/08 02:13:45;;;;;;;;;22.75;19.00;;;;;9.35;56.34;102794.34;5050109;28;45473;-46
2022/02/08 02:16:13;;;;;;;;;23.75;18.75;;;;;9.38;56.28;102797.06;5046043;28;45417;-53
2022/02/08 02:18:38;;;;;;;;;24.50;22.00;;;;;9.36;56.16;102793.50;5046347;28;47595;-51
2022/02/08 02:21:04;;;;;;;;;14.75;12.75;;;;;9.38;56.34;102798.78;5052784;28;45477;-45
2022/02/08 02:23:31;;;;;;;;;20.75;18.25;;;;;9.37;56.40;102792.66;5039084;28;45311;-46
2022/02/08 02:25:58;;;;;;;;;22.25;20.75;;;;;9.36;56.53;102792.63;5041566;28;45314;-45
2022/02/08 02:28:23;;;;;;;;;18.00;15.00;;;;;9.33;56.48;102788.19;5049891;28;45444;-45
2022/02/08 02:30:49;;;;;;;;;25.00;20.75;;;;;9.32;56.56;102780.28;5043512;28;45815;-46
2022/02/08 02:33:15;;;;;;;;;21.50;17.50;;;;;9.33;56.40;102788.19;5048881;28;45258;-48
2022/02/08 02:35:42;;;;;;;;;17.50;15.25;;;;;9.33;56.64;102782.94;5049420;28;46432;-44
2022/02/08 02:38:07;;;;;;;;;21.25;17.00;;;;;9.34;56.46;102786.47;5051651;28;46188;-48
2022/02/08 02:40:33;;;;;;;;;20.50;16.50;;;;;9.33;56.30;102782.94;5045240;28;45442;-48
2022/02/08 02:43:00;;;;;;;;;17.50;17.00;;;;;9.33;56.54;102785.56;5051685;28;45344;-48
2022/02/08 02:45:25;;;;;;;;;18.00;14.50;;;;;9.30;56.72;102774.13;5046018;28;45313;-44
2022/02/08 02:47:53;;;;;;;;;19.00;16.00;;;;;9.31;56.57;102773.25;5050872;28;46565;-47
2022/02/08 02:50:19;;;;;;;;;17.75;14.25;;;;;9.29;56.71;102769.72;5045989;28;45291;-45
2022/02/08 02:52:45;;;;;;;;;12.25;11.00;;;;;9.29;56.58;102770.59;5052311;28;45358;-46
2022/02/08 02:55:13;;;;;;;;;11.75;9.25;;;;;9.27;56.69;102773.19;5055501;28;45298;-45
2022/02/08 02:57:40;;;;;;;;;14.00;13.00;;;;;9.28;56.81;102776.69;5040065;28;46218;-47
2022/02/08 03:00:12;;;;;;;;;16.25;15.50;;;;;9.27;56.69;102778.44;5055481;28;45334;-47
2022/02/08 03:02:56;;;;;;;;;19.75;14.00;;;;;9.25;56.77;102781.88;5053452;28;45247;-48
2022/02/08 03:05:40;;;;;;;;;13.00;12.00;;;;;9.22;56.81;102771.28;5029494;28;45382;-46
2022/02/08 03:19:01;;;;;;;;;13.75;11.50;;;;;9.03;56.83;102757.75;5055388;28;45881;-45
2022/02/08 03:21:26;;;;;;;;;12.25;11.75;;;;;9.14;56.96;102778.97;5050185;28;45381;-44
2022/02/08 03:23:52;;;;;;;;;14.75;11.25;;;;;9.17;56.54;102770.31;5045188;28;45322;-48
2022/02/08 03:26:17;;;;;;;;;13.50;11.50;;;;;9.17;57.08;102770.31;5046299;28;45607;-45
2022/02/08 03:28:43;;;;;;;;;14.75;11.50;;;;;9.17;57.05;102765.97;5049734;28;46985;-44
2022/02/08 03:31:08;;;;;;;;;13.50;12.00;;;;;9.17;56.85;102771.22;5047850;28;45232;-48
2022/02/08 03:33:34;;;;;;;;;13.75;12.00;;;;;9.20;57.02;102775.63;5053188;28;45335;-48
2022/02/08 03:35:59;;;;;;;;;10.00;10.00;;;;;9.19;57.00;102779.09;5042468;28;45235;-47
2022/02/08 03:38:40;;;;;;;;;15.25;9.75;;;;;9.17;56.80;102772.91;5053133;28;47785;-48
2022/02/08 03:41:09;;;;;;;;;14.25;11.50;;;;;9.17;57.08;102784.31;5029915;28;45430;-46
2022/02/08 03:43:38;;;;;;;;;11.75;10.50;;;;;9.18;56.87;102780.84;5054967;28;45161;-45
2022/02/08 03:46:08;;;;;;;;;14.75;10.00;;;;;9.17;57.24;102776.44;5049807;28;45347;-43
2022/02/08 03:48:36;;;;;;;;;13.50;8.50;;;;;9.17;57.02;102783.41;5047955;28;47243;-46
2022/02/08 03:51:15;;;;;;;;;17.25;11.50;;;;;9.15;57.19;102780.75;5050018;28;45392;-48
2022/02/08 03:53:44;;;;;;;;;13.00;10.75;;;;;9.14;57.36;102780.72;5054573;28;45529;-44
2022/02/08 03:56:15;;;;;;;;;10.25;7.75;;;;;9.13;56.93;102789.44;5040314;28;45432;-46
2022/02/08 03:58:40;;;;;;;;;12.00;11.25;;;;;9.14;57.13;102785.97;5041425;28;45438;-46
2022/02/08 04:04:45;;;;;;;;;13.25;9.00;;;;;9.16;57.25;102789.53;5052113;28;45360;-46
2022/02/08 04:06:41;;;;;;;;;10.25;8.00;;;;;9.14;57.05;102784.22;5029646;28;45443;-48
2022/02/08 04:09:08;;;;;;;;;12.50;10.75;;;;;9.17;57.42;102786.94;5042249;28;45445;-46
2022/02/08 04:11:38;;;;;;;;;13.50;11.00;;;;;9.17;57.08;102786.03;5040874;28;45340;-47
2022/02/08 04:14:25;;;;;;;;;11.75;10.75;;;;;9.17;57.26;102801.78;5054579;28;45173;-47
2022/02/08 04:16:52;;;;;;;;;14.25;11.00;;;;;9.18;57.25;102798.31;5051876;28;45243;-45
2022/02/08 04:19:25;;;;;;;;;11.50;8.00;;;;;9.14;57.12;102801.72;5046233;28;45521;-44
2022/02/08 04:33:05;;;;;;;;;9.50;7.00;;;;;9.12;57.39;102806.94;5046328;28;45334;-46
2022/02/08 04:38:44;;;;;;;;;12.50;10.25;;;;;9.09;57.45;102802.50;5051003;28;45363;-46
2022/02/08 04:41:14;;;;;;;;;12.25;10.25;;;;;9.14;57.66;102801.72;5028395;28;45335;-46
2022/02/08 04:49:05;;;;;;;;;11.00;9.50;;;;;9.13;57.67;102798.19;5019016;28;45393;-47
2022/02/08 04:51:45;;;;;;;;;11.00;7.00;;;;;9.13;57.62;102785.06;5035650;28;45483;-44
2022/02/08 05:45:23;;;;;;;;;12.00;8.25;;;;;9.17;58.13;102788.66;5052920;28;45313;-44
2022/02/08 05:47:51;;;;;;;;;5.75;3.75;;;;;9.17;58.06;102786.03;5049660;28;45448;-45
2022/02/08 05:53:02;;;;;;;;;11.75;11.00;;;;;9.20;58.06;102780.88;5048834;28;45203;-47
2022/02/08 05:55:28;;;;;;;;;11.00;8.50;;;;;9.17;58.15;102776.44;5052883;28;46243;-45
2022/02/08 05:57:54;;;;;;;;;12.50;11.00;;;;;9.19;57.87;102777.34;5037567;28;45346;-49
2022/02/08 06:00:26;;;;;;;;;11.75;8.50;;;;;9.19;58.08;102781.72;5053146;28;45302;-44
2022/02/08 06:02:51;;;;;;;;;13.25;11.75;;;;;9.21;58.06;102780.03;5053005;28;45350;-46
2022/02/08 06:05:19;;;;;;;;;8.25;7.00;;;;;9.21;58.21;102783.53;5046741;28;46492;-44
2022/02/08 06:07:45;;;;;;;;;14.00;10.75;;;;;9.21;58.38;102780.03;5043625;28;45282;-46
2022/02/08 06:10:11;;;;;;;;;13.00;11.00;;;;;9.22;58.42;102787.03;5042268;28;45432;-48
2022/02/08 06:12:50;;;;;;;;;13.50;11.50;;;;;9.24;58.11;102785.34;5055159;28;45381;-46
2022/02/08 06:15:18;;;;;;;;;9.75;9.50;;;;;9.20;58.28;102779.13;5052724;28;46312;-48
2022/02/08 06:17:43;;;;;;;;;10.25;7.75;;;;;9.23;58.33;102786.19;5048212;28;45475;-46
2022/02/08 06:20:10;;;;;;;;;13.25;11.00;;;;;9.18;58.67;102773.00;5051700;28;45445;-44
2022/02/08 06:22:36;;;;;;;;;21.00;13.75;;;;;9.21;58.56;102787.91;5053418;28;45297;-46
2022/02/08 06:25:05;;;;;;;;;13.25;11.00;;;;;9.22;58.67;102792.28;5041111;28;47264;-46
2022/02/08 06:27:31;;;;;;;;;11.50;10.00;;;;;9.20;58.60;102791.38;5055035;28;45433;-49
2022/02/08 06:29:58;;;;;;;;;11.50;11.25;;;;;9.18;58.75;102795.69;5048821;28;45263;-45
2022/02/08 06:32:25;;;;;;;;;16.25;11.75;;;;;9.19;58.60;102797.47;5045021;28;45455;-46
2022/02/08 06:34:50;;;;;;;;;13.75;11.75;;;;;9.20;58.99;102796.63;5053294;28;46226;-46
2022/02/08 06:37:19;;;;;;;;;11.25;10.75;;;;;9.21;58.87;102793.16;5055371;28;45252;-46
2022/02/08 06:39:44;;;;;;;;;12.75;11.75;;;;;9.24;59.01;102801.09;5050941;28;45307;-49
2022/02/08 06:42:10;;;;;;;;;16.75;12.75;;;;;9.23;59.05;102797.59;5044773;28;45410;-52
2022/02/08 06:44:35;;;;;;;;;12.50;10.75;;;;;9.25;58.87;102790.63;5052385;28;47172;-48
2022/02/08 06:47:01;;;;;;;;;11.00;11.00;;;;;9.27;59.02;102801.19;5049164;28;45239;-47
2022/02/08 06:49:27;;;;;;;;;14.00;12.25;;;;;9.30;59.00;102806.47;5051122;28;45361;-50
2022/02/08 06:51:52;;;;;;;;;15.25;12.00;;;;;9.33;59.05;102805.66;5054705;28;45219;-47
2022/02/08 06:54:18;;;;;;;;;13.75;10.00;;;;;9.32;59.04;102802.19;5051833;28;46264;-45
2022/02/08 06:56:43;;;;;;;;;11.25;7.00;;;;;9.35;58.90;102803.97;5042915;28;45671;-42
2022/02/08 06:59:11;;;;;;;;;12.50;11.75;;;;;9.35;58.99;102807.47;5051393;28;45771;-42
2022/02/08 07:01:37;;;;;;;;;11.75;8.75;;;;;9.37;59.10;102807.50;5047510;28;45300;-52
2022/02/08 07:04:06;;;;;;;;;11.75;9.50;;;;;9.38;59.08;102804.03;5051837;28;45481;-47
2022/02/08 07:06:32;;;;;;;;;13.00;10.00;;;;;9.41;59.01;102804.13;5055278;28;45294;-42
2022/02/08 07:08:57;;;;;;;;;15.00;9.75;;;;;9.41;58.97;102802.38;5042018;28;45651;-41
2022/02/08 07:11:24;;;;;;;;;14.75;12.00;;;;;9.44;59.05;102810.31;5045892;28;45452;-42
2022/02/08 07:13:52;;;;;;;;;15.00;12.75;;;;;9.45;59.17;102808.59;5051038;28;45435;-42
2022/02/08 07:16:17;;;;;;;;;12.75;10.50;;;;;9.48;59.20;102807.78;5055178;28;45474;-42
2022/02/08 07:18:43;;;;;;;;;14.25;12.25;;;;;9.50;59.39;102806.97;5053804;28;45414;-40
2022/02/08 07:21:09;;;;;;;;;11.50;11.50;;;;;9.52;59.24;102802.66;5048543;28;45248;-40
2022/02/08 07:23:35;;;;;;;;;14.75;11.75;;;;;9.51;59.53;102810.47;5046795;28;46239;-42
2022/02/08 07:26:01;;;;;;;;;7.25;6.25;;;;;9.54;59.19;102821.91;5044921;28;45259;-41
2022/02/08 07:28:26;;;;;;;;;12.25;12.25;;;;;9.54;59.37;102821.03;5052301;28;45176;-41
2022/02/08 07:31:00;;;;;;;;;13.25;12.00;;;;;9.56;59.12;102828.09;5047535;28;45428;-41
2022/02/08 07:33:26;;;;;;;;;16.00;12.00;;;;;9.55;59.47;102833.31;5052759;28;45369;-42
2022/02/08 07:36:00;;;;;;;;;8.75;8.25;;;;;9.58;59.29;102831.66;5048416;28;45298;-42
2022/02/08 07:38:34;;;;;;;;;10.50;10.50;;;;;9.57;59.38;102831.59;5049740;28;45185;-42
2022/02/08 07:43:25;;;;;;;;;13.00;9.50;;;;;9.63;59.53;102836.13;5054586;28;45161;-43
2022/02/08 07:45:50;;;;;;;;;13.00;13.00;;;;;9.63;59.51;102839.63;5048490;28;45251;-41
2022/02/08 07:48:16;;;;;;;;;17.00;15.00;;;;;9.65;59.42;102835.31;5048767;28;45526;-41
2022/02/08 07:50:42;;;;;;;;;19.50;14.75;;;;;9.67;59.32;102841.50;5055010;28;45685;-41
2022/02/08 07:53:13;;;;;;;;;22.00;17.00;;;;;9.69;59.38;102833.63;5054530;28;46343;-41
2022/02/08 07:55:40;;;;;;;;;17.00;15.25;;;;;9.72;59.64;102831.06;5028645;28;45452;-43
2022/02/08 07:58:05;;;;;;;;;17.50;15.00;;;;;9.72;59.57;102831.06;5039327;28;45180;-42
2022/02/08 08:00:31;;;;;;;;;24.25;16.25;;;;;9.73;59.37;102833.72;5053918;28;45622;-42
2022/02/08 08:02:56;;;;;;;;;21.50;17.00;;;;;9.73;59.58;102831.09;5054778;28;46184;-41
2022/02/08 08:05:22;;;;;;;;;23.75;18.75;;;;;9.74;59.51;102826.75;5049003;28;45409;-41
2022/02/08 08:07:47;;;;;;;;;24.25;19.50;;;;;9.77;59.45;102818.94;5045910;27;45328;-42
2022/02/08 08:10:18;;;;;;;;;16.00;12.75;;;;;9.80;59.81;102825.97;5040701;28;45215;-43
2022/02/08 08:12:54;;;;;;;;;22.75;17.00;;;;;9.82;59.60;102835.66;5054636;28;46236;-41
2022/02/08 08:20:35;;;;;;;;;19.00;16.50;;;;;9.80;59.55;102825.97;5040717;28;45307;-41
2022/02/08 08:23:00;;;;;;;;;20.25;15.75;;;;;9.81;59.79;102827.75;5035908;28;45424;-42
2022/02/08 08:25:25;;;;;;;;;16.75;12.50;;;;;9.86;59.86;102827.03;5037653;28;45440;-43
2022/02/08 08:27:51;;;;;;;;;14.00;13.25;;;;;9.86;59.91;102831.38;5049065;28;45382;-44
2022/02/08 08:30:16;;;;;;;;;16.50;13.75;;;;;9.84;60.15;102822.59;5040395;28;45600;-43
2022/02/08 08:32:42;;;;;;;;;13.00;12.50;;;;;9.84;60.04;102827.84;5043008;28;45420;-42
2022/02/08 08:35:09;;;;;;;;;16.50;12.75;;;;;9.86;60.11;102826.13;5040318;28;45485;-42
2022/02/08 08:37:39;;;;;;;;;13.50;11.75;;;;;9.86;60.01;102832.28;5040346;28;45433;-41
2022/02/08 08:40:16;;;;;;;;;13.25;12.25;;;;;9.86;59.97;102834.00;5040196;27;45401;-41
2022/02/08 08:53:25;;;;;;;;;19.50;16.00;;;;;9.88;60.50;102841.06;5052420;28;45409;-41
2022/02/08 08:55:52;;;;;;;;;16.25;15.00;;;;;9.85;60.52;102835.75;5039571;28;45362;-43
2022/02/08 08:58:17;;;;;;;;;16.25;13.50;;;;;9.86;60.63;102836.63;5055881;28;45382;-43
2022/02/08 09:00:42;;;;;;;;;17.00;14.75;;;;;9.87;60.60;102828.81;5060464;28;45300;-45
2022/02/08 09:03:08;;;;;;;;;17.75;17.75;;;;;9.90;60.51;102833.25;5059824;28;45354;-45
2022/02/08 09:05:33;;;;;;;;;17.25;16.25;;;;;9.90;60.69;102831.50;5060717;28;45401;-42
2022/02/08 09:07:59;;;;;;;;;14.25;13.75;;;;;9.94;60.61;102840.31;5059901;28;45522;-42
2022/02/08 09:10:31;;;;;;;;;19.00;15.00;;;;;9.99;60.50;102835.19;5049983;28;45295;-42
2022/02/08 09:15:36;;;;;;;;;16.75;15.50;;;;;10.01;60.67;102833.47;5060402;28;45167;-41
2022/02/08 09:24:10;;;;;;;;;18.00;15.25;;;;;9.99;60.68;102824.69;5046167;28;45189;-42
2022/02/08 09:31:02;;;;;;;;;20.00;19.00;;;;;10.03;60.85;102822.13;5049145;28;45700;-43
2022/02/08 09:33:28;;;;;;;;;22.50;18.25;;;;;10.06;60.84;102826.56;5051052;28;45191;-42
2022/02/08 09:35:54;;;;;;;;;23.75;19.75;;;;;10.10;60.72;102828.41;5045625;28;45572;-42
2022/02/08 09:38:20;;;;;;;;;20.75;19.50;;;;;10.11;60.82;102826.66;5039888;28;45345;-42
2022/02/08 09:40:47;;;;;;;;;23.50;20.75;;;;;10.14;60.72;102824.09;5039714;28;45446;-42
2022/02/08 09:43:14;;;;;;;;;23.50;21.75;;;;;10.15;61.06;102823.25;5039783;28;47223;-42
2022/02/08 09:45:51;;;;;;;;;18.75;18.00;;;;;10.20;60.58;102816.34;5039704;28;45380;-44
2022/02/08 09:48:29;;;;;;;;;18.50;16.75;;;;;10.22;60.76;102817.25;5039954;28;45303;-42
2022/02/08 09:50:55;;;;;;;;;29.50;24.00;;;;;10.23;60.84;102832.19;5039707;28;45449;-43
2022/02/08 09:53:30;;;;;;;;;26.50;21.25;;;;;10.25;61.04;102826.09;5038089;28;47273;-42
2022/02/08 09:55:56;;;;;;;;;21.50;18.75;;;;;10.29;60.89;102826.16;5039687;28;45449;-45
2022/02/08 09:58:21;;;;;;;;;25.50;21.75;;;;;10.27;61.01;102814.75;5039620;28;45248;-42
2022/02/08 10:00:46;;;;;;;;;26.75;18.75;;;;;10.34;61.03;102819.25;5039848;28;45305;-45
2022/02/08 10:03:14;;;;;;;;;22.50;18.25;;;;;10.36;60.93;102822.81;5039479;28;46134;-42
2022/02/08 10:05:45;;;;;;;;;20.50;18.25;;;;;10.35;61.13;102808.78;5039883;28;45252;-42
2022/02/08 10:08:10;;;;;;;;;20.00;16.75;;;;;10.37;61.17;102807.06;5039344;28;45386;-43
2022/02/08 10:10:36;;;;;;;;;18.00;15.00;;;;;10.40;61.18;102814.13;5039352;28;45287;-43
2022/02/08 10:13:17;;;;;;;;;18.00;16.75;;;;;10.45;61.10;102817.75;5039391;28;45310;-44
2022/02/08 10:23:59;;;;;;;;;16.50;15.25;;;;;10.59;61.37;102814.50;5038824;28;46176;-43
2022/02/08 10:29:12;;;;;;;;;18.25;17.00;;;;;10.61;61.33;102811.03;5039377;28;45317;-44
2022/02/08 10:40:09;;;;;;;;;19.00;16.00;;;;;10.72;61.48;102812.13;5038930;28;45485;-44
2022/02/08 10:42:36;;;;;;;;;19.50;16.50;;;;;10.75;61.59;102819.19;5039149;28;45348;-44
2022/02/08 10:45:15;;;;;;;;;14.75;13.00;;;;;10.77;61.48;102811.31;5038662;28;46206;-43
2022/02/08 10:47:41;;;;;;;;;12.50;12.50;;;;;10.80;61.49;102811.38;5039184;28;45344;-44
2022/02/08 10:50:10;;;;;;;;;21.75;18.75;;;;;10.84;61.49;102819.38;5038884;28;45315;-43
2022/02/08 10:52:38;;;;;;;;;21.75;17.00;;;;;10.86;61.68;102811.50;5039111;28;45450;-43
2022/02/08 10:55:21;;;;;;;;;18.75;17.00;;;;;10.90;61.28;102821.19;5038684;28;47092;-46
2022/02/08 10:57:58;;;;;;;;;15.75;12.75;;;;;10.93;61.50;102816.00;5042411;28;45303;-46
2022/02/08 11:00:31;;;;;;;;;16.50;15.25;;;;;10.97;61.68;102816.91;5037921;28;46093;-46
2022/02/08 11:03:00;;;;;;;;;15.75;14.25;;;;;10.99;61.61;102812.59;5041348;28;45606;-47
2022/02/08 11:05:38;;;;;;;;;16.75;16.00;;;;;11.02;61.74;102818.78;5038426;28;46181;-45
2022/02/08 11:14:12;;;;;;;;;16.00;14.00;;;;;11.11;61.81;102812.81;5032270;28;45411;-43
2022/02/08 11:16:13;;;;;;;;;15.50;14.75;;;;;11.15;61.70;102805.84;5043709;28;46364;-45
2022/02/08 11:24:02;;;;;;;;;10.75;10.50;;;;;11.19;61.71;102805.94;5033460;28;45193;-44
2022/02/08 11:26:37;;;;;;;;;18.50;15.25;;;;;11.21;61.85;102801.56;5035665;28;46074;-43
2022/02/08 11:29:38;;;;;;;;;14.00;13.50;;;;;11.23;61.76;102793.69;5041720;28;45161;-43
2022/02/08 11:32:21;;;;;;;;;11.25;11.25;;;;;11.26;61.89;102793.75;5041780;28;45594;-48
2022/02/08 11:49:02;;;;;;;;;14.00;12.50;;;;;11.40;61.85;102779.91;5035377;28;46117;-44
2022/02/08 12:03:27;;;;;;;;;13.50;12.00;;;;;11.55;61.87;102759.06;5040981;28;45319;-45
2022/02/08 12:05:24;;;;;;;;;11.75;11.75;;;;;11.61;61.77;102752.97;5030764;28;45393;-45
2022/02/08 12:07:55;;;;;;;;;14.00;11.50;;;;;11.66;61.76;102751.28;5053174;28;45245;-45
2022/02/08 12:10:51;;;;;;;;;9.25;7.25;;;;;11.68;61.83;102753.13;5040514;28;46229;-44
2022/02/08 12:13:53;;;;;;;;;12.50;11.75;;;;;11.73;61.78;102750.50;5024656;28;45363;-44
2022/02/08 12:32:40;;;;;;;;;18.75;15.00;;;;;11.91;61.91;102727.91;5049183;28;45345;-43
2022/02/08 13:03:48;;;;;;;;;19.00;16.25;;;;;12.14;61.75;102701.88;5042240;28;45359;-42
2022/02/08 13:14:16;;;;;;;;;17.25;16.00;;;;;12.17;61.67;102693.97;5046632;28;45366;-43
2022/02/08 13:20:06;;;;;;;;;12.75;11.25;;;;;12.22;61.70;102667.69;5048344;28;45232;-43
2022/02/08 15:00:35;;;;;;;;;5.00;3.75;;;;;12.70;61.02;102620.59;5044696;28;45387;-42
2022/02/08 15:05:59;;;;;;;;;9.75;7.00;;;;;12.73;61.08;102623.25;5049665;28;45283;-43
2022/02/08 15:08:28;;;;;;;;;8.00;6.50;;;;;12.74;60.79;102619.75;5031551;28;45389;-42
2022/02/08 15:11:00;;;;;;;;;8.00;7.50;;;;;12.76;61.04;102623.28;5043445;28;45474;-43
2022/02/08 15:13:27;;;;;;;;;9.50;8.25;;;;;12.77;60.87;102622.41;5052464;28;46088;-43
2022/02/08 15:18:18;;;;;;;;;9.50;8.00;;;;;12.82;61.36;102628.59;5052164;28;45277;-44
2022/02/08 15:20:43;;;;;;;;;7.25;7.00;;;;;12.83;60.86;102630.38;5055571;28;45157;-44
2022/02/08 15:23:11;;;;;;;;;9.25;9.00;;;;;12.85;60.84;102633.88;5035453;28;45527;-43
2022/02/08 15:25:37;;;;;;;;;6.25;6.25;;;;;12.88;60.71;102631.28;5028122;28;46421;-43
2022/02/08 15:28:03;;;;;;;;;7.00;7.00;;;;;12.86;61.10;102632.16;5053092;28;45275;-43
2022/02/08 15:30:31;;;;;;;;;6.00;6.00;;;;;12.88;61.05;102633.00;5048289;28;45517;-42
2022/02/08 15:32:57;;;;;;;;;11.00;6.50;;;;;12.88;61.11;102631.28;5050868;28;45197;-42
2022/02/08 15:35:22;;;;;;;;;6.25;6.25;;;;;12.89;60.70;102633.03;5055161;28;45236;-43
2022/02/08 15:37:50;;;;;;;;;5.75;4.50;;;;;12.88;61.02;102633.91;5053309;28;45376;-42
2022/02/08 15:40:15;;;;;;;;;5.00;4.75;;;;;12.88;61.13;102633.91;5047968;28;45608;-43
2022/02/08 15:42:41;;;;;;;;;6.75;6.75;;;;;12.86;61.19;102640.94;5050411;28;45942;-43
2022/02/08 15:45:21;;;;;;;;;7.75;7.25;;;;;12.86;61.12;102630.38;5054920;28;45263;-42
2022/02/08 15:47:47;;;;;;;;;5.00;5.00;;;;;12.86;60.89;102640.94;5053940;28;45565;-43
2022/02/08 15:50:20;;;;;;;;;7.00;7.00;;;;;12.83;60.63;102633.00;5048657;28;45403;-42
2022/02/08 15:55:30;;;;;;;;;7.25;6.25;;;;;12.74;60.91;102627.66;5053100;28;45465;-44
2022/02/08 15:58:05;;;;;;;;;6.00;6.00;;;;;12.74;60.72;102630.28;5054751;28;45304;-43
2022/02/08 16:08:46;;;;;;;;;8.75;7.00;;;;;12.62;61.01;102626.69;5049854;28;45296;-43
2022/02/08 16:11:38;;;;;;;;;9.00;7.25;;;;;12.60;61.27;102623.19;5042528;28;46380;-44
2022/02/08 16:14:08;;;;;;;;;10.25;9.00;;;;;12.57;61.14;102620.50;5053290;28;46074;-42
2022/02/08 16:32:28;;;;;;;;;12.00;11.25;;;;;12.44;61.48;102629.19;5036506;28;45332;-47
2022/02/08 16:46:11;;;;;;;;;9.75;9.75;;;;;12.26;61.24;102629.91;5040416;28;45697;-43
2022/02/08 16:56:28;;;;;;;;;12.50;11.00;;;;;12.15;61.27;102640.34;5055189;28;45293;-43
2022/02/08 16:58:56;;;;;;;;;11.50;10.25;;;;;12.15;61.32;102650.91;5046270;28;45157;-44
2022/02/08 17:01:28;;;;;;;;;13.50;10.25;;;;;12.12;61.32;102637.69;5039942;28;45335;-44
2022/02/08 17:03:54;;;;;;;;;13.25;13.25;;;;;12.12;61.47;102635.06;5050704;28;45465;-46
2022/02/08 17:06:24;;;;;;;;;15.00;13.50;;;;;12.09;61.37;102635.91;5046811;28;45992;-43
2022/02/08 17:08:56;;;;;;;;;8.25;8.25;;;;;12.06;61.24;102638.50;5035096;28;45333;-43
2022/02/08 17:11:35;;;;;;;;;13.25;11.00;;;;;12.07;61.37;102648.19;5039935;28;45307;-48
2022/02/08 17:17:01;;;;;;;;;10.25;9.00;;;;;12.09;61.23;102640.28;5039917;28;46164;-44
2022/02/08 17:46:20;;;;;;;;;11.25;10.50;;;;;11.99;61.56;102631.44;5041710;28;45375;-46
2022/02/08 17:48:47;;;;;;;;;19.75;17.00;;;;;11.97;61.37;102636.66;5039497;28;46109;-45
2022/02/08 17:51:13;;;;;;;;;9.50;9.50;;;;;11.98;61.42;102634.94;5039230;28;45320;-45
2022/02/08 17:53:38;;;;;;;;;9.00;7.75;;;;;11.98;61.29;102638.44;5037640;28;45452;-46
2022/02/08 17:56:05;;;;;;;;;11.00;10.00;;;;;11.96;61.46;102642.81;5038841;28;45257;-45
2022/02/08 17:58:30;;;;;;;;;12.00;12.00;;;;;11.94;61.90;102641.88;5039316;28;47061;-49
2022/02/08 18:00:57;;;;;;;;;13.50;12.50;;;;;11.94;61.59;102651.56;5039090;28;45379;-45
2022/02/08 18:03:22;;;;;;;;;17.75;13.25;;;;;11.94;61.33;102649.78;5034566;28;45409;-49
2022/02/08 18:05:48;;;;;;;;;13.75;13.25;;;;;11.94;61.50;102649.78;5046678;28;45506;-45
2022/02/08 18:08:14;;;;;;;;;15.50;13.50;;;;;11.95;61.39;102648.03;5042366;28;46050;-46
2022/02/08 18:10:43;;;;;;;;;11.00;11.00;;;;;11.95;61.56;102645.38;5043848;28;45294;-46
2022/02/08 18:13:13;;;;;;;;;14.00;11.75;;;;;11.96;61.38;102647.19;5050288;28;45327;-44
2022/02/08 18:15:38;;;;;;;;;15.25;12.50;;;;;11.95;61.40;102651.56;5043143;28;45343;-47
2022/02/08 18:18:09;;;;;;;;;12.50;8.75;;;;;11.95;61.45;102651.56;5050556;28;45370;-45
2022/02/08 18:20:45;;;;;;;;;7.75;7.75;;;;;11.93;61.19;102644.50;5040367;28;45508;-48
2022/02/08 19:21:58;;;;;;;;;9.75;9.00;;;;;12.07;61.52;102642.06;5048693;28;46145;-45
2022/02/08 19:24:23;;;;;;;;;10.25;10.25;;;;;12.08;61.40;102628.00;5038680;28;45785;-45
2022/02/08 19:26:51;;;;;;;;;13.00;12.00;;;;;12.09;61.38;102635.91;5035959;28;45477;-45